Welcome to Northern Hawkes Bay. New Zealand.
PWS Header
      nz Flag



Hit Counter


W3C Valid W3C Valid logo


    Wairoa

Select any of the Stations below to visit their websites.










Historic Data from Weather Underground
Select the location of interest below. Wairoa is the default. Please have patience, this Data is slow to load in.
Northern Hawkes Bay Historical Data
Daily Summary for October 13, 2018 Units:  Metric    English   Both
« Previous Day
Next Day »
Daily Weekly Monthly Yearly Custom
  High: Low: Average:
Temperature: 11.4 °C 6.3 °C 9 °C
Dew Point: 8.3 °C 2.8 °C 5.5 °C
Humidity: 97% 57% 79%
Wind Speed: 37.8km/h 0.0km/h 21.6km/h
Wind Gust: 60.2km/h - -
Wind- - WSW
Pressure: 1021.7 hPa 1008.6 hPa -
Precipitation: 16.8 mm    
Historical Graphs
 
 
Tabular Data for October 13, 2018
Time Temperature Dew Point Pressure Wind Wind Speed Wind Gust Humidity Rainfall Rate (Hourly) solar
00:04 9.2 °C 7.9 °C 1008.9 hPa NNW 28.0 km/h 47.9 km/h 92% 1.3 mm 0.00 W/m2
00:09 9.2 °C 7.9 °C 1008.6 hPa NNW 20.9 km/h 47.9 km/h 92% 1.5 mm 0.00 W/m2
00:14 9.2 °C 8.3 °C 1008.7 hPa WNW 24.5 km/h 39.3 km/h 94% 1.5 mm 0.00 W/m2
00:19 9.2 °C 8.3 °C 1009.0 hPa WSW 29.4 km/h 48.9 km/h 94% 1.5 mm 0.00 W/m2
00:24 9.1 °C 8.2 °C 1009.4 hPa WSW 18.3 km/h 48.9 km/h 94% 1.8 mm 0.00 W/m2
00:29 9.2 °C 8.3 °C 1009.5 hPa West 18.3 km/h 45.4 km/h 94% 1.5 mm 0.00 W/m2
00:34 8.8 °C 7.9 °C 1009.4 hPa NW 14.8 km/h 39.3 km/h 94% 1.5 mm 0.00 W/m2
00:39 8.8 °C 7.9 °C 1009.6 hPa WSW 23.3 km/h 41.7 km/h 94% 1.5 mm 0.00 W/m2
00:44 8.8 °C 7.7 °C 1009.5 hPa SW 19.5 km/h 41.7 km/h 93% 1.5 mm 0.00 W/m2
00:49 8.8 °C 7.6 °C 1009.7 hPa WSW 21.9 km/h 41.7 km/h 92% 2.8 mm 0.00 W/m2
00:54 8.4 °C 7.8 °C 1010.0 hPa WSW 29.4 km/h 57.6 km/h 96% 3.6 mm 0.00 W/m2
00:59 8.4 °C 7.9 °C 1009.9 hPa SW 27.0 km/h 57.6 km/h 97% 3.8 mm 0.00 W/m2
01:04 8.4 °C 7.8 °C 1009.9 hPa NNW 15.8 km/h 40.4 km/h 96% 3.8 mm 0.00 W/m2
01:09 8.6 °C 7.4 °C 1010.1 hPa NNE 19.5 km/h 40.4 km/h 92% 3.8 mm 0.00 W/m2
01:14 8.6 °C 7.6 °C 1010.0 hPa North 28.0 km/h 39.3 km/h 93% 4.3 mm 0.00 W/m2
01:19 8.5 °C 7.6 °C 1010.0 hPa NNW 28.0 km/h 39.3 km/h 94% 4.6 mm 0.00 W/m2
01:24 8.5 °C 7.6 °C 1009.9 hPa NW 29.4 km/h 39.3 km/h 94% 4.6 mm 0.00 W/m2
01:29 8.7 °C 7.6 °C 1009.9 hPa West 24.5 km/h 39.3 km/h 93% 4.8 mm 0.00 W/m2
01:34 8.7 °C 7.8 °C 1010.0 hPa WSW 24.5 km/h 43.9 km/h 94% 5.1 mm 0.00 W/m2
01:39 8.8 °C 7.6 °C 1010.4 hPa NW 30.6 km/h 57.6 km/h 92% 5.3 mm 0.00 W/m2
01:44 8.2 °C 7.0 °C 1010.2 hPa NNE 24.5 km/h 57.6 km/h 92% 6.1 mm 0.00 W/m2
01:49 7.8 °C 6.7 °C 1009.9 hPa NW 28.0 km/h 57.6 km/h 93% 4.8 mm 0.00 W/m2
01:54 8.0 °C 7.1 °C 1009.8 hPa WSW 28.0 km/h 42.8 km/h 94% 4.6 mm 0.00 W/m2
01:59 8.1 °C 7.2 °C 1009.9 hPa WNW 25.6 km/h 39.3 km/h 94% 4.6 mm 0.00 W/m2
02:04 8.3 °C 7.6 °C 1009.5 hPa North 27.0 km/h 37.8 km/h 95% 4.8 mm 0.00 W/m2
02:09 8.4 °C 7.5 °C 1009.7 hPa NNE 30.6 km/h 41.7 km/h 94% 4.8 mm 0.00 W/m2
02:14 8.5 °C 7.3 °C 1009.7 hPa NNE 20.9 km/h 41.7 km/h 92% 4.6 mm 0.00 W/m2
02:19 8.8 °C 7.6 °C 1009.7 hPa North 24.5 km/h 41.7 km/h 92% 4.6 mm 0.00 W/m2
02:24 8.7 °C 7.6 °C 1010.0 hPa North 30.6 km/h 48.9 km/h 93% 4.6 mm 0.00 W/m2
02:29 8.4 °C 6.8 °C 1010.0 hPa NNE 28.0 km/h 54.1 km/h 90% 4.6 mm 0.00 W/m2
02:32 8.4 °C 6.6 °C 1009.9 hPa NE 25.6 km/h 54.1 km/h 88% 4.6 mm 0.00 W/m2
02:49 9.7 °C 5.9 °C 1010.2 hPa North 29.4 km/h 51.5 km/h 77% 2.3 mm 0.00 W/m2
02:54 9.2 °C 6.7 °C 1010.1 hPa WNW 24.5 km/h 51.5 km/h 84% 2.0 mm 0.00 W/m2
02:59 8.7 °C 6.7 °C 1010.3 hPa SW 19.5 km/h 47.9 km/h 87% 1.8 mm 0.00 W/m2
03:04 8.5 °C 7.1 °C 1010.3 hPa SW 29.4 km/h 41.7 km/h 91% 1.3 mm 0.00 W/m2
03:09 8.5 °C 7.1 °C 1010.4 hPa SW 37.8 km/h 54.1 km/h 91% 1.5 mm 0.00 W/m2
03:14 8.0 °C 6.9 °C 1010.4 hPa SW 24.5 km/h 54.1 km/h 93% 1.5 mm 0.00 W/m2
03:19 7.8 °C 6.9 °C 1010.5 hPa SW 35.6 km/h 48.9 km/h 94% 1.8 mm 0.00 W/m2
03:24 7.9 °C 7.0 °C 1010.6 hPa SW 29.4 km/h 48.9 km/h 94% 1.5 mm 0.00 W/m2
03:29 8.1 °C 7.1 °C 1010.7 hPa SW 21.9 km/h 48.9 km/h 93% 1.3 mm 0.00 W/m2
03:34 8.6 °C 6.7 °C 1010.5 hPa WSW 27.0 km/h 51.5 km/h 88% 1.3 mm 0.00 W/m2
03:39 8.9 °C 6.7 °C 1010.6 hPa West 29.4 km/h 51.5 km/h 86% 1.3 mm 0.00 W/m2
03:44 9.0 °C 6.4 °C 1010.7 hPa SW 30.6 km/h 45.4 km/h 84% 1.3 mm 0.00 W/m2
03:49 9.1 °C 6.4 °C 1010.8 hPa SW 24.5 km/h 46.5 km/h 83% 1.3 mm 0.00 W/m2
03:54 9.2 °C 6.1 °C 1010.7 hPa SW 29.4 km/h 46.5 km/h 81% 1.3 mm 0.00 W/m2
03:59 8.5 °C 6.3 °C 1010.7 hPa WSW 25.6 km/h 43.9 km/h 86% 1.3 mm 0.00 W/m2
04:04 8.0 °C 5.9 °C 1010.7 hPa SW 18.3 km/h 43.9 km/h 87% 1.3 mm 0.00 W/m2
04:09 8.5 °C 6.6 °C 1010.8 hPa SW 20.9 km/h 39.3 km/h 88% 0.5 mm 0.00 W/m2
04:14 9.1 °C 5.8 °C 1010.9 hPa SW 28.0 km/h 48.9 km/h 80% 0.3 mm 0.00 W/m2
04:19 9.3 °C 5.3 °C 1010.9 hPa WSW 36.7 km/h 57.6 km/h 76% 0.0 mm 0.00 W/m2
04:24 8.3 °C 5.9 °C 1010.8 hPa WSW 25.6 km/h 57.6 km/h 85% 0.0 mm 0.00 W/m2
04:29 7.9 °C 5.7 °C 1011.0 hPa WSW 24.5 km/h 56.2 km/h 86% 0.0 mm 0.00 W/m2
04:34 7.7 °C 5.8 °C 1011.2 hPa West 18.3 km/h 40.4 km/h 88% 0.0 mm 0.00 W/m2
04:39 7.7 °C 6.3 °C 1011.3 hPa WSW 19.5 km/h 36.7 km/h 91% 0.0 mm 0.00 W/m2
04:44 7.7 °C 6.3 °C 1011.4 hPa WSW 17.2 km/h 34.3 km/h 91% 0.0 mm 0.00 W/m2
04:49 7.8 °C 6.4 °C 1011.3 hPa WSW 17.2 km/h 35.6 km/h 91% 0.0 mm 0.00 W/m2
04:54 7.7 °C 6.3 °C 1011.6 hPa WSW 18.3 km/h 35.6 km/h 91% 0.3 mm 0.00 W/m2
04:59 7.8 °C 6.4 °C 1011.6 hPa SW 17.2 km/h 30.6 km/h 91% 0.5 mm 0.00 W/m2
05:04 7.5 °C 6.1 °C 1011.7 hPa SW 13.4 km/h 29.4 km/h 91% 1.5 mm 0.00 W/m2
05:09 6.9 °C 5.7 °C 1011.7 hPa WSW 17.2 km/h 31.7 km/h 92% 1.8 mm 0.00 W/m2
05:14 7.2 °C 6.2 °C 1011.7 hPa West 20.9 km/h 37.8 km/h 93% 2.0 mm 0.00 W/m2
05:19 7.5 °C 6.4 °C 1011.7 hPa WSW 21.9 km/h 37.8 km/h 93% 2.0 mm 0.00 W/m2
05:24 7.8 °C 6.7 °C 1011.6 hPa West 12.2 km/h 34.3 km/h 93% 2.0 mm 0.00 W/m2
05:29 8.0 °C 6.9 °C 1011.7 hPa West 21.9 km/h 37.8 km/h 93% 2.3 mm 0.00 W/m2
05:34 8.9 °C 6.8 °C 1011.8 hPa WSW 23.3 km/h 42.8 km/h 87% 2.3 mm 0.00 W/m2
05:39 9.2 °C 6.3 °C 1011.8 hPa SW 30.6 km/h 42.8 km/h 82% 2.3 mm 0.00 W/m2
05:44 9.4 °C 5.9 °C 1012.2 hPa SW 30.6 km/h 46.5 km/h 79% 2.3 mm 0.00 W/m2
05:49 8.7 °C 6.3 °C 1012.5 hPa SW 18.3 km/h 46.5 km/h 85% 2.3 mm 0.00 W/m2
05:54 8.4 °C 6.0 °C 1012.3 hPa WSW 34.3 km/h 54.1 km/h 85% 2.0 mm 0.00 W/m2
05:59 8.1 °C 4.8 °C 1012.4 hPa WSW 35.6 km/h 60.2 km/h 80% 1.8 mm 0.00 W/m2
06:04 8.1 °C 4.1 °C 1012.3 hPa WSW 15.8 km/h 60.2 km/h 76% 1.0 mm 0.00 W/m2
06:09 8.4 °C 3.8 °C 1012.6 hPa WSW 18.3 km/h 52.6 km/h 73% 0.5 mm 0.00 W/m2
06:14 9.0 °C 4.8 °C 1012.4 hPa WSW 15.8 km/h 37.8 km/h 75% 0.3 mm 0.00 W/m2
06:19 9.4 °C 5.0 °C 1012.5 hPa WSW 25.6 km/h 40.4 km/h 74% 0.3 mm 0.00 W/m2
06:24 8.7 °C 5.3 °C 1012.8 hPa WSW 18.3 km/h 43.9 km/h 79% 0.3 mm 0.00 W/m2
06:29 8.3 °C 5.8 °C 1012.8 hPa WSW 24.5 km/h 43.9 km/h 84% 0.0 mm 0.00 W/m2
06:34 7.9 °C 5.7 °C 1013.1 hPa WSW 24.5 km/h 39.3 km/h 86% 0.0 mm 0.00 W/m2
06:39 7.6 °C 5.6 °C 1013.3 hPa WSW 12.2 km/h 39.3 km/h 87% 0.0 mm 1.00 W/m2
06:44 7.6 °C 5.7 °C 1013.0 hPa WSW 21.9 km/h 36.7 km/h 88% 0.0 mm 1.00 W/m2
06:49 7.6 °C 5.9 °C 1013.4 hPa WSW 27.0 km/h 40.4 km/h 89% 0.3 mm 0.00 W/m2
06:54 7.1 °C 5.2 °C 1013.4 hPa WSW 14.8 km/h 40.4 km/h 88% 0.3 mm 1.00 W/m2
06:59 7.2 °C 5.8 °C 1013.5 hPa SW 25.6 km/h 36.7 km/h 91% 0.5 mm 2.00 W/m2
07:04 7.5 °C 6.4 °C 1013.4 hPa SW 21.9 km/h 39.3 km/h 93% 0.5 mm 9.00 W/m2
07:09 7.7 °C 6.5 °C 1013.6 hPa SW 18.3 km/h 39.3 km/h 92% 0.5 mm 9.00 W/m2
07:14 7.6 °C 6.2 °C 1013.7 hPa WSW 25.6 km/h 39.3 km/h 91% 0.5 mm 28.00 W/m2
07:19 7.7 °C 6.3 °C 1013.5 hPa WSW 14.8 km/h 40.4 km/h 91% 0.5 mm 38.00 W/m2
07:24 7.7 °C 6.2 °C 1013.8 hPa WSW 23.3 km/h 40.4 km/h 90% 0.5 mm 34.00 W/m2
07:29 7.8 °C 6.3 °C 1014.0 hPa SW 20.9 km/h 36.7 km/h 90% 0.5 mm 23.00 W/m2
07:34 7.8 °C 6.1 °C 1013.8 hPa WSW 21.9 km/h 39.3 km/h 89% 0.5 mm 30.00 W/m2
07:39 8.0 °C 6.1 °C 1014.1 hPa WSW 17.2 km/h 39.3 km/h 88% 0.5 mm 33.00 W/m2
07:44 7.9 °C 6.1 °C 1014.1 hPa West 20.9 km/h 43.9 km/h 88% 0.5 mm 33.00 W/m2
07:49 7.4 °C 5.7 °C 1014.2 hPa West 19.5 km/h 43.9 km/h 89% 0.3 mm 39.00 W/m2
07:54 7.3 °C 5.9 °C 1014.4 hPa West 18.3 km/h 36.7 km/h 91% 0.3 mm 34.00 W/m2
07:59 7.5 °C 6.1 °C 1014.5 hPa WSW 27.0 km/h 35.6 km/h 91% 0.0 mm 30.00 W/m2
08:04 7.6 °C 6.2 °C 1014.6 hPa SW 17.2 km/h 42.8 km/h 91% 0.0 mm 19.00 W/m2
08:09 7.3 °C 5.8 °C 1014.3 hPa SW 19.5 km/h 42.8 km/h 90% 0.3 mm 40.00 W/m2
08:14 7.4 °C 5.9 °C 1014.6 hPa SW 15.8 km/h 40.4 km/h 90% 0.3 mm 22.00 W/m2
08:19 7.2 °C 5.7 °C 1014.8 hPa SW 24.5 km/h 48.9 km/h 90% 0.5 mm 13.00 W/m2
08:24 7.4 °C 6.1 °C 1014.7 hPa SW 17.2 km/h 48.9 km/h 91% 0.5 mm 34.00 W/m2
08:29 8.1 °C 6.6 °C 1014.9 hPa NW 30.6 km/h 46.5 km/h 90% 0.5 mm 33.00 W/m2
08:34 7.7 °C 5.8 °C 1015.2 hPa West 31.7 km/h 46.5 km/h 88% 0.5 mm 47.00 W/m2
08:39 7.4 °C 6.1 °C 1015.1 hPa SW 23.3 km/h 46.5 km/h 91% 0.5 mm 60.00 W/m2
08:44 7.1 °C 5.7 °C 1015.2 hPa WSW 20.9 km/h 46.5 km/h 91% 0.5 mm 91.00 W/m2
08:49 7.0 °C 5.8 °C 1015.1 hPa WSW 19.5 km/h 34.3 km/h 92% 0.5 mm 95.00 W/m2
08:54 7.3 °C 6.2 °C 1015.2 hPa WSW 21.9 km/h 33.1 km/h 93% 0.5 mm 101.00 W/m2
08:59 7.6 °C 6.6 °C 1015.3 hPa SW 18.3 km/h 28.0 km/h 93% 0.5 mm 86.00 W/m2
09:04 7.8 °C 6.7 °C 1015.1 hPa WSW 11.1 km/h 25.6 km/h 93% 0.5 mm 104.00 W/m2
09:09 8.0 °C 6.6 °C 1015.4 hPa WSW 9.7 km/h 24.5 km/h 91% 0.3 mm 61.00 W/m2
09:14 8.1 °C 6.4 °C 1015.4 hPa SW 27.0 km/h 40.4 km/h 89% 0.5 mm 35.00 W/m2
09:19 7.7 °C 6.0 °C 1015.6 hPa SW 17.2 km/h 40.4 km/h 89% 0.3 mm 37.00 W/m2
09:24 7.0 °C 5.6 °C 1015.6 hPa WSW 27.0 km/h 40.4 km/h 91% 1.3 mm 63.00 W/m2
09:29 6.9 °C 5.8 °C 1015.6 hPa WSW 34.3 km/h 45.4 km/h 93% 1.3 mm 122.00 W/m2
09:34 7.1 °C 6.2 °C 1015.7 hPa WSW 28.0 km/h 45.4 km/h 94% 1.3 mm 161.00 W/m2
09:39 7.2 °C 6.3 °C 1016.1 hPa SW 27.0 km/h 41.7 km/h 94% 1.3 mm 98.00 W/m2
09:44 7.2 °C 6.2 °C 1015.9 hPa SW 23.3 km/h 40.4 km/h 93% 1.3 mm 119.00 W/m2
09:49 7.5 °C 6.4 °C 1016.0 hPa SW 25.6 km/h 46.5 km/h 93% 1.5 mm 89.00 W/m2
09:54 7.4 °C 6.2 °C 1016.3 hPa SW 21.9 km/h 54.1 km/h 92% 1.5 mm 106.00 W/m2
09:59 7.0 °C 5.8 °C 1016.2 hPa SW 23.3 km/h 54.1 km/h 92% 1.5 mm 104.00 W/m2
10:04 6.8 °C 5.9 °C 1016.4 hPa WSW 17.2 km/h 43.9 km/h 94% 1.5 mm 156.00 W/m2
10:09 7.1 °C 6.1 °C 1016.4 hPa WSW 17.2 km/h 43.9 km/h 93% 1.5 mm 170.00 W/m2
10:14 7.2 °C 6.2 °C 1016.3 hPa WSW 14.8 km/h 39.3 km/h 93% 1.3 mm 105.00 W/m2
10:19 7.6 °C 6.4 °C 1016.6 hPa WSW 25.6 km/h 43.9 km/h 92% 1.0 mm 116.00 W/m2
10:24 8.2 °C 6.3 °C 1016.7 hPa WSW 29.4 km/h 43.9 km/h 88% 0.5 mm 225.00 W/m2
10:29 8.7 °C 6.3 °C 1016.8 hPa West 27.0 km/h 46.5 km/h 85% 0.5 mm 235.00 W/m2
10:34 8.8 °C 5.6 °C 1016.7 hPa WSW 28.0 km/h 46.5 km/h 80% 0.5 mm 254.00 W/m2
10:39 8.9 °C 5.1 °C 1016.9 hPa SW 23.3 km/h 43.9 km/h 77% 0.5 mm 315.00 W/m2
10:44 9.3 °C 5.1 °C 1016.9 hPa WSW 20.9 km/h 37.8 km/h 75% 0.5 mm 244.00 W/m2
10:49 9.7 °C 5.5 °C 1017.0 hPa West 27.0 km/h 36.7 km/h 75% 0.3 mm 268.00 W/m2
10:54 9.3 °C 5.5 °C 1017.2 hPa WSW 23.3 km/h 43.9 km/h 77% 0.3 mm 161.00 W/m2
10:59 8.7 °C 5.8 °C 1017.1 hPa WSW 19.5 km/h 43.9 km/h 82% 0.3 mm 134.00 W/m2
11:04 8.5 °C 6.1 °C 1017.2 hPa West 12.2 km/h 29.4 km/h 85% 0.3 mm 136.00 W/m2
11:09 8.6 °C 6.6 °C 1017.2 hPa WSW 25.6 km/h 30.6 km/h 87% 0.3 mm 112.00 W/m2
11:14 8.1 °C 5.9 °C 1017.5 hPa SW 27.0 km/h 48.9 km/h 86% 0.3 mm 120.00 W/m2
11:19 7.8 °C 5.8 °C 1017.4 hPa WSW 20.9 km/h 48.9 km/h 87% 0.3 mm 87.00 W/m2
11:24 7.8 °C 6.1 °C 1017.4 hPa West 28.0 km/h 43.9 km/h 89% 0.0 mm 131.00 W/m2
11:29 7.9 °C 6.5 °C 1017.2 hPa WSW 30.6 km/h 47.9 km/h 91% 0.0 mm 295.00 W/m2
11:34 8.5 °C 6.9 °C 1017.3 hPa SW 29.4 km/h 51.5 km/h 90% 0.0 mm 573.00 W/m2
11:39 9.0 °C 6.9 °C 1017.3 hPa SW 31.7 km/h 51.5 km/h 87% 0.0 mm 585.00 W/m2
11:44 9.3 °C 7.1 °C 1017.5 hPa SW 18.3 km/h 51.5 km/h 86% 0.0 mm 339.00 W/m2
11:49 9.9 °C 7.5 °C 1017.7 hPa SW 29.4 km/h 46.5 km/h 85% 0.0 mm 504.00 W/m2
11:54 9.9 °C 6.8 °C 1017.7 hPa West 31.7 km/h 48.9 km/h 81% 0.0 mm 547.00 W/m2
11:59 9.4 °C 5.9 °C 1017.9 hPa West 31.7 km/h 48.9 km/h 79% 0.0 mm 251.00 W/m2
12:04 9.0 °C 5.2 °C 1017.9 hPa WSW 30.6 km/h 47.9 km/h 77% 0.0 mm 166.00 W/m2
12:09 9.0 °C 5.6 °C 1017.7 hPa West 19.5 km/h 46.5 km/h 79% 0.0 mm 234.00 W/m2
12:14 9.2 °C 5.4 °C 1017.8 hPa WSW 29.4 km/h 51.5 km/h 77% 0.0 mm 240.00 W/m2
12:19 9.4 °C 5.8 °C 1017.8 hPa SW 27.0 km/h 51.5 km/h 78% 0.0 mm 381.00 W/m2
12:24 9.3 °C 5.5 °C 1017.9 hPa WSW 25.6 km/h 52.6 km/h 77% 0.0 mm 268.00 W/m2
12:29 9.1 °C 4.9 °C 1018.0 hPa WSW 34.3 km/h 52.6 km/h 75% 0.0 mm 309.00 W/m2
12:34 9.8 °C 5.9 °C 1018.1 hPa SW 30.6 km/h 48.9 km/h 77% 0.0 mm 522.00 W/m2
12:39 9.8 °C 6.2 °C 1018.2 hPa SW 29.4 km/h 45.4 km/h 78% 0.0 mm 282.00 W/m2
12:44 9.4 °C 5.2 °C 1018.0 hPa SW 29.4 km/h 51.5 km/h 75% 0.0 mm 390.00 W/m2
12:49 9.9 °C 5.5 °C 1018.1 hPa WSW 20.9 km/h 51.5 km/h 74% 0.0 mm 303.00 W/m2
12:54 10.3 °C 4.9 °C 1017.9 hPa West 27.0 km/h 51.5 km/h 69% 0.0 mm 224.00 W/m2
12:59 10.2 °C 4.3 °C 1017.7 hPa WSW 27.0 km/h 45.4 km/h 67% 0.0 mm 192.00 W/m2
13:04 10.2 °C 3.7 °C 1017.9 hPa WSW 19.5 km/h 42.8 km/h 64% 0.0 mm 214.00 W/m2
13:09 10.3 °C 3.8 °C 1018.0 hPa WSW 20.9 km/h 39.3 km/h 64% 0.0 mm 200.00 W/m2
13:14 9.8 °C 4.8 °C 1017.9 hPa WSW 25.6 km/h 50.0 km/h 71% 0.0 mm 161.00 W/m2
13:19 9.4 °C 3.6 °C 1017.9 hPa WSW 24.5 km/h 51.5 km/h 67% 0.0 mm 227.00 W/m2
13:24 10.0 °C 3.5 °C 1017.8 hPa NW 15.8 km/h 51.5 km/h 64% 0.0 mm 198.00 W/m2
13:29 10.5 °C 4.6 °C 1017.7 hPa West 27.0 km/h 36.7 km/h 67% 0.0 mm 147.00 W/m2
13:34 10.3 °C 4.7 °C 1018.1 hPa SSW 19.5 km/h 36.7 km/h 68% 0.0 mm 145.00 W/m2
13:39 10.3 °C 3.8 °C 1018.0 hPa NE 27.0 km/h 39.3 km/h 64% 0.0 mm 161.00 W/m2
13:44 10.4 °C 3.9 °C 1018.1 hPa WNW 25.6 km/h 39.3 km/h 64% 0.0 mm 171.00 W/m2
13:49 10.5 °C 3.8 °C 1018.2 hPa WNW 23.3 km/h 40.4 km/h 63% 0.0 mm 266.00 W/m2
13:54 10.7 °C 3.9 °C 1018.3 hPa WSW 23.3 km/h 40.4 km/h 63% 0.0 mm 291.00 W/m2
13:59 10.8 °C 3.8 °C 1018.2 hPa SW 31.7 km/h 46.5 km/h 62% 0.0 mm 679.00 W/m2
14:04 10.9 °C 3.4 °C 1018.3 hPa SW 29.4 km/h 46.5 km/h 60% 0.0 mm 637.00 W/m2
14:09 11.3 °C 3.1 °C 1018.2 hPa WSW 36.7 km/h 50.0 km/h 57% 0.0 mm 138.00 W/m2
14:14 11.0 °C 3.1 °C 1018.3 hPa WNW 28.0 km/h 50.0 km/h 58% 0.0 mm 240.00 W/m2
14:19 11.2 °C 3.0 °C 1018.3 hPa WSW 24.5 km/h 50.0 km/h 57% 0.0 mm 653.00 W/m2
14:24 11.4 °C 3.7 °C 1018.3 hPa SW 23.3 km/h 50.0 km/h 59% 0.0 mm 672.00 W/m2
14:29 11.4 °C 3.4 °C 1018.4 hPa WSW 25.6 km/h 42.8 km/h 58% 0.0 mm 111.00 W/m2
14:34 10.1 °C 5.5 °C 1018.6 hPa WSW 30.6 km/h 48.9 km/h 73% 0.0 mm 87.00 W/m2
14:39 8.8 °C 5.3 °C 1018.6 hPa WNW 31.7 km/h 48.9 km/h 79% 0.0 mm 115.00 W/m2
14:44 8.8 °C 5.6 °C 1018.7 hPa NW 30.6 km/h 46.5 km/h 80% 0.0 mm 212.00 W/m2
14:49 9.6 °C 5.9 °C 1018.7 hPa WNW 34.3 km/h 46.5 km/h 78% 0.0 mm 624.00 W/m2
14:54 10.1 °C 5.7 °C 1018.8 hPa NNW 34.3 km/h 54.1 km/h 74% 0.0 mm 370.00 W/m2
14:59 10.0 °C 4.8 °C 1019.0 hPa NNW 30.6 km/h 54.1 km/h 70% 0.0 mm 165.00 W/m2
15:04 9.1 °C 3.7 °C 1018.9 hPa WNW 21.9 km/h 51.5 km/h 69% 0.0 mm 257.00 W/m2
15:09 9.6 °C 5.2 °C 1018.9 hPa WSW 21.9 km/h 51.5 km/h 74% 0.0 mm 595.00 W/m2
15:14 10.7 °C 5.4 °C 1018.8 hPa West 18.3 km/h 37.8 km/h 70% 0.0 mm 449.00 W/m2
15:19 11.0 °C 5.3 °C 1018.7 hPa NNW 21.9 km/h 37.8 km/h 68% 0.0 mm 306.00 W/m2
15:24 10.8 °C 5.6 °C 1018.8 hPa NW 23.3 km/h 40.4 km/h 70% 0.0 mm 207.00 W/m2
15:29 10.3 °C 5.5 °C 1019.1 hPa NNW 30.6 km/h 43.9 km/h 72% 0.0 mm 225.00 W/m2
15:34 9.8 °C 5.4 °C 1019.0 hPa NNW 19.5 km/h 43.9 km/h 74% 0.0 mm 331.00 W/m2
15:39 9.7 °C 5.5 °C 1019.0 hPa West 21.9 km/h 43.9 km/h 75% 0.0 mm 193.00 W/m2
15:44 9.8 °C 5.6 °C 1019.0 hPa SW 7.2 km/h 30.6 km/h 75% 0.0 mm 293.00 W/m2
15:49 10.3 °C 5.9 °C 1019.1 hPa West 21.9 km/h 39.3 km/h 74% 0.0 mm 268.00 W/m2
15:54 9.7 °C 4.7 °C 1019.0 hPa West 23.3 km/h 48.9 km/h 71% 0.0 mm 170.00 W/m2
15:58 9.7 °C 5.5 °C 1019.0 hPa WSW 27.0 km/h 48.9 km/h 75% 0.0 mm 174.00 W/m2
16:14 11.2 °C 5.1 °C 1019.0 hPa West 24.5 km/h 41.7 km/h 66% 0.0 mm 196.00 W/m2
16:19 10.3 °C 5.7 °C 1019.1 hPa WNW 24.5 km/h 43.9 km/h 73% 0.0 mm 79.00 W/m2
16:24 10.1 °C 6.3 °C 1019.1 hPa WNW 17.2 km/h 43.9 km/h 77% 0.0 mm 184.00 W/m2
16:29 10.3 °C 6.4 °C 1019.1 hPa WNW 28.0 km/h 39.3 km/h 77% 0.0 mm 325.00 W/m2
16:34 10.5 °C 5.7 °C 1019.1 hPa NW 17.2 km/h 47.9 km/h 72% 0.0 mm 312.00 W/m2
16:39 10.8 °C 5.1 °C 1019.2 hPa West 20.9 km/h 47.9 km/h 68% 0.0 mm 354.00 W/m2
16:44 10.9 °C 5.7 °C 1019.0 hPa WSW 18.3 km/h 37.8 km/h 70% 0.0 mm 299.00 W/m2
16:49 11.0 °C 5.3 °C 1018.9 hPa SW 30.6 km/h 39.3 km/h 68% 0.0 mm 283.00 W/m2
16:54 11.1 °C 5.4 °C 1019.1 hPa West 25.6 km/h 39.3 km/h 68% 0.0 mm 274.00 W/m2
16:59 11.1 °C 5.2 °C 1019.1 hPa West 24.5 km/h 37.8 km/h 67% 0.0 mm 102.00 W/m2
17:04 10.6 °C 5.3 °C 1019.0 hPa WSW 28.0 km/h 36.7 km/h 70% 0.0 mm 134.00 W/m2
17:09 10.8 °C 5.6 °C 1018.9 hPa North 14.8 km/h 35.6 km/h 70% 0.0 mm 281.00 W/m2
17:14 11.1 °C 4.8 °C 1019.1 hPa North 15.8 km/h 43.9 km/h 65% 0.0 mm 218.00 W/m2
17:19 11.0 °C 4.0 °C 1019.0 hPa East 15.8 km/h 43.9 km/h 62% 0.0 mm 216.00 W/m2
17:24 11.3 °C 4.7 °C 1019.0 hPa East 23.3 km/h 39.3 km/h 64% 0.0 mm 203.00 W/m2
17:29 11.2 °C 4.2 °C 1019.1 hPa North 19.5 km/h 35.6 km/h 62% 0.0 mm 193.00 W/m2
17:34 11.1 °C 4.1 °C 1019.2 hPa WSW 27.0 km/h 35.6 km/h 62% 0.0 mm 91.00 W/m2
17:39 10.8 °C 3.6 °C 1019.4 hPa WNW 24.5 km/h 47.9 km/h 61% 0.0 mm 72.00 W/m2
17:44 10.5 °C 3.8 °C 1019.3 hPa NNW 24.5 km/h 47.9 km/h 63% 0.0 mm 77.00 W/m2
17:49 10.9 °C 4.3 °C 1019.3 hPa NNW 18.3 km/h 39.3 km/h 64% 0.0 mm 146.00 W/m2
17:54 10.9 °C 4.3 °C 1019.3 hPa WSW 30.6 km/h 39.3 km/h 64% 0.0 mm 70.00 W/m2
17:59 10.6 °C 4.1 °C 1019.3 hPa SW 20.9 km/h 39.3 km/h 64% 0.0 mm 52.00 W/m2
18:04 10.4 °C 4.1 °C 1019.4 hPa SW 28.0 km/h 42.8 km/h 65% 0.0 mm 60.00 W/m2
18:09 10.3 °C 4.0 °C 1019.4 hPa SSW 23.3 km/h 42.8 km/h 65% 0.0 mm 44.00 W/m2
18:14 10.5 °C 4.6 °C 1019.3 hPa SSW 23.3 km/h 40.4 km/h 67% 0.0 mm 62.00 W/m2
18:19 10.5 °C 4.2 °C 1019.6 hPa WSW 25.6 km/h 40.4 km/h 65% 0.0 mm 57.00 W/m2
18:24 10.6 °C 4.3 °C 1019.6 hPa WSW 20.9 km/h 36.7 km/h 65% 0.0 mm 74.00 W/m2
18:29 10.8 °C 4.5 °C 1019.5 hPa WNW 18.3 km/h 36.7 km/h 65% 0.0 mm 63.00 W/m2
18:34 10.7 °C 4.6 °C 1019.3 hPa WNW 18.3 km/h 30.6 km/h 66% 0.0 mm 38.00 W/m2
18:39 10.7 °C 4.8 °C 1019.4 hPa WSW 13.4 km/h 30.6 km/h 67% 0.0 mm 49.00 W/m2
18:44 10.7 °C 5.1 °C 1019.5 hPa SW 17.2 km/h 29.4 km/h 68% 0.0 mm 30.00 W/m2
18:49 10.5 °C 4.6 °C 1019.5 hPa West 21.9 km/h 30.6 km/h 67% 0.0 mm 24.00 W/m2
18:54 10.5 °C 4.2 °C 1019.3 hPa NW 24.5 km/h 31.7 km/h 65% 0.0 mm 22.00 W/m2
18:59 10.5 °C 4.4 °C 1019.5 hPa NW 19.5 km/h 31.7 km/h 66% 0.0 mm 16.00 W/m2
19:04 10.4 °C 4.6 °C 1019.5 hPa NW 15.8 km/h 31.7 km/h 67% 0.0 mm 12.00 W/m2
19:09 10.3 °C 4.7 °C 1019.5 hPa WNW 19.5 km/h 37.8 km/h 68% 0.0 mm 9.00 W/m2
19:14 10.3 °C 5.1 °C 1019.5 hPa WNW 19.5 km/h 37.8 km/h 70% 0.0 mm 5.00 W/m2
19:19 10.3 °C 4.4 °C 1019.6 hPa WNW 19.5 km/h 35.6 km/h 67% 0.0 mm 3.00 W/m2
19:24 10.2 °C 4.3 °C 1019.6 hPa NNW 27.0 km/h 41.7 km/h 67% 0.0 mm 0.00 W/m2
19:29 10.2 °C 4.3 °C 1019.6 hPa NW 19.5 km/h 41.7 km/h 67% 0.0 mm 0.00 W/m2
19:34 10.2 °C 4.1 °C 1019.7 hPa WSW 18.3 km/h 41.7 km/h 66% 0.0 mm 0.00 W/m2
19:39 10.1 °C 3.8 °C 1019.7 hPa West 21.9 km/h 34.3 km/h 65% 0.0 mm 0.00 W/m2
19:44 10.1 °C 4.1 °C 1019.8 hPa West 23.3 km/h 35.6 km/h 66% 0.0 mm 0.00 W/m2
19:49 10.2 °C 3.7 °C 1019.8 hPa SW 21.9 km/h 37.8 km/h 64% 0.0 mm 0.00 W/m2
19:54 10.2 °C 3.5 °C 1019.9 hPa SW 27.0 km/h 37.8 km/h 63% 0.0 mm 0.00 W/m2
19:59 10.2 °C 2.8 °C 1019.9 hPa WSW 18.3 km/h 35.6 km/h 60% 0.0 mm 0.00 W/m2
20:04 10.2 °C 3.5 °C 1020.1 hPa WSW 17.2 km/h 35.6 km/h 63% 0.0 mm 0.00 W/m2
20:09 10.2 °C 3.0 °C 1020.1 hPa West 20.9 km/h 35.6 km/h 61% 0.0 mm 0.00 W/m2
20:14 10.2 °C 3.0 °C 1020.3 hPa West 27.0 km/h 39.3 km/h 61% 0.0 mm 0.00 W/m2
20:19 10.2 °C 4.1 °C 1020.2 hPa WSW 18.3 km/h 39.3 km/h 66% 0.0 mm 0.00 W/m2
20:24 10.1 °C 4.3 °C 1020.3 hPa WSW 20.9 km/h 39.3 km/h 67% 0.0 mm 0.00 W/m2
20:29 10.1 °C 4.1 °C 1020.4 hPa SW 24.5 km/h 35.6 km/h 66% 0.0 mm 0.00 W/m2
20:34 10.1 °C 4.4 °C 1020.5 hPa WSW 17.2 km/h 35.6 km/h 68% 0.0 mm 0.00 W/m2
20:39 10.1 °C 4.1 °C 1020.5 hPa WSW 20.9 km/h 34.3 km/h 66% 0.0 mm 0.00 W/m2
20:44 10.1 °C 4.1 °C 1020.7 hPa WSW 18.3 km/h 34.3 km/h 66% 0.0 mm 0.00 W/m2
20:49 10.1 °C 3.6 °C 1020.7 hPa WSW 21.9 km/h 31.7 km/h 64% 0.0 mm 0.00 W/m2
20:54 10.0 °C 3.9 °C 1020.7 hPa SW 14.8 km/h 31.7 km/h 66% 0.0 mm 0.00 W/m2
20:59 10.0 °C 3.7 °C 1020.8 hPa SW 12.2 km/h 29.4 km/h 65% 0.0 mm 0.00 W/m2
21:04 10.0 °C 3.5 °C 1021.0 hPa SW 17.2 km/h 33.1 km/h 64% 0.0 mm 0.00 W/m2
21:09 9.9 °C 3.8 °C 1020.9 hPa SW 13.4 km/h 33.1 km/h 66% 0.0 mm 0.00 W/m2
21:14 9.9 °C 4.1 °C 1020.9 hPa SW 20.9 km/h 29.4 km/h 67% 0.0 mm 0.00 W/m2
21:19 10.0 °C 4.2 °C 1020.8 hPa SW 17.2 km/h 35.6 km/h 67% 0.0 mm 0.00 W/m2
21:24 9.9 °C 4.1 °C 1021.0 hPa SW 14.8 km/h 35.6 km/h 67% 0.0 mm 0.00 W/m2
21:29 9.9 °C 4.1 °C 1020.9 hPa SW 12.2 km/h 28.0 km/h 67% 0.0 mm 0.00 W/m2
21:34 9.7 °C 4.1 °C 1020.9 hPa WSW 15.8 km/h 29.4 km/h 68% 0.0 mm 0.00 W/m2
21:39 9.7 °C 4.3 °C 1021.0 hPa WSW 13.4 km/h 29.4 km/h 69% 0.0 mm 0.00 W/m2
21:44 9.7 °C 4.9 °C 1021.1 hPa WSW 14.8 km/h 27.0 km/h 72% 0.0 mm 0.00 W/m2
21:49 9.7 °C 4.7 °C 1021.3 hPa West 15.8 km/h 29.4 km/h 71% 0.0 mm 0.00 W/m2
21:54 9.6 °C 5.2 °C 1021.1 hPa SW 17.2 km/h 29.4 km/h 74% 0.0 mm 0.00 W/m2
21:59 9.6 °C 5.2 °C 1021.1 hPa SW 12.2 km/h 25.6 km/h 74% 0.0 mm 0.00 W/m2
22:04 9.5 °C 5.1 °C 1021.1 hPa WSW 15.8 km/h 24.5 km/h 74% 0.0 mm 0.00 W/m2
22:09 9.5 °C 4.7 °C 1021.1 hPa SW 11.1 km/h 27.0 km/h 72% 0.0 mm 0.00 W/m2
22:14 9.5 °C 4.7 °C 1021.0 hPa SW 9.7 km/h 27.0 km/h 72% 0.0 mm 0.00 W/m2
22:19 9.4 °C 4.8 °C 1021.0 hPa WSW 13.4 km/h 20.9 km/h 73% 0.0 mm 0.00 W/m2
22:24 9.4 °C 4.8 °C 1021.1 hPa WSW 12.2 km/h 20.9 km/h 73% 0.0 mm 0.00 W/m2
22:29 9.4 °C 5.0 °C 1021.3 hPa SW 12.2 km/h 20.9 km/h 74% 0.0 mm 0.00 W/m2
22:34 9.4 °C 5.2 °C 1021.2 hPa WSW 7.2 km/h 19.5 km/h 75% 0.0 mm 0.00 W/m2
22:39 9.3 °C 5.1 °C 1021.2 hPa WSW 3.5 km/h 19.5 km/h 75% 0.0 mm 0.00 W/m2
22:44 9.0 °C 4.8 °C 1021.4 hPa WSW 6.1 km/h 14.8 km/h 75% 0.0 mm 0.00 W/m2
22:49 8.9 °C 4.9 °C 1021.4 hPa West 2.6 km/h 12.2 km/h 76% 0.0 mm 0.00 W/m2
22:54 8.7 °C 4.7 °C 1021.1 hPa West 5.0 km/h 8.7 km/h 76% 0.0 mm 0.00 W/m2
22:59 8.6 °C 4.8 °C 1021.3 hPa Calm   8.7 km/h 77% 0.0 mm 0.00 W/m2
23:04 8.4 °C 4.6 °C 1021.4 hPa West 2.6 km/h 8.7 km/h 77% 0.0 mm 0.00 W/m2
23:09 8.1 °C 4.3 °C 1021.4 hPa WNW 2.6 km/h 6.1 km/h 77% 0.0 mm 0.00 W/m2
23:14 7.7 °C 4.1 °C 1021.6 hPa WNW 1.1 km/h 6.1 km/h 78% 0.0 mm 0.00 W/m2
23:19 7.4 °C 4.0 °C 1021.4 hPa Calm   6.1 km/h 79% 0.0 mm 0.00 W/m2
23:24 7.2 °C 3.8 °C 1021.3 hPa WNW 1.1 km/h 5.0 km/h 79% 0.0 mm 0.00 W/m2
23:29 7.0 °C 3.8 °C 1021.5 hPa WNW 3.5 km/h 5.0 km/h 80% 0.0 mm 0.00 W/m2
23:34 6.8 °C 3.9 °C 1021.4 hPa WNW 2.6 km/h 5.0 km/h 82% 0.0 mm 0.00 W/m2
23:39 6.6 °C 3.7 °C 1021.5 hPa NW 3.5 km/h 6.1 km/h 82% 0.0 mm 0.00 W/m2
23:44 6.5 °C 3.8 °C 1021.5 hPa NW 2.6 km/h 6.1 km/h 83% 0.0 mm 0.00 W/m2
23:49 6.4 °C 3.9 °C 1021.6 hPa NW 5.0 km/h 7.2 km/h 84% 0.0 mm 0.00 W/m2
23:54 6.3 °C 3.9 °C 1021.7 hPa NW 3.5 km/h 8.7 km/h 85% 0.0 mm 0.00 W/m2
23:59 6.3 °C 3.9 °C 1021.5 hPa NW 5.0 km/h 9.7 km/h 85% 0.0 mm 0.00 W/m2
Northern Hawkes Bay. New Zealand Historic Data
Compliments of Weather Underground - 2 mb